PWSweather.com
Personal Weather Stations
Station Observations
WD4JKH
Forsyth, GA 31029

Forsyth, GA 31029

Lat: 33.033225, Lon: -83.927995

Elevation: 709

Station Type: Davis Vantage VUE

High Low Average
Temperature 58.3°F14.6°C 38.4°F3.6°C 48.3°F9.1°C
Dew Point 44.0°F6.7°C 20.4°F-6.4°C 28.1°F-2.2°C
Winds 8.5 mph 13.7 kmh 1.0 mph 1.6 kmh 4.0 mph NW6.4 kmh NW
Wind Gusts 21.0 mph33.8 kmh 2.0 mph3.2 kmh 11.0 mph17.7 kmh
Humidity 76% 23% 48%
Pressure 30.24 in1024.0 mb 30.05 in1017.6 mb -
Precipitation 0.00 in0.0 mm - -
Hour Temp Dew Point Humidity Winds Wind Gusts Pressure Precip Precip Rate Daily Precip Total
12:04 AM 51.6°F10.9°C 44.0°F6.7°C 75% 4.2 mph WNW6.8 kmh WNW 16.0 mph25.7 kmh 30.05 in1017.6 mb 0.00 in0.0 mm 0.00 in0.0 mm 0.00 in0.0 mm
12:09 AM 51.4°F10.8°C 43.8°F6.6°C 75% 4.3 mph NW6.9 kmh NW 16.0 mph25.7 kmh 30.05 in1017.6 mb 0.00 in0.0 mm 0.00 in0.0 mm 0.00 in0.0 mm
12:14 AM 51.2°F10.7°C 43.6°F6.4°C 75% 5.9 mph WNW9.5 kmh WNW 16.0 mph25.7 kmh 30.05 in1017.6 mb 0.00 in0.0 mm 0.00 in0.0 mm 0.00 in0.0 mm
12:19 AM 51.1°F10.6°C 43.5°F6.4°C 75% 2.8 mph NW4.5 kmh NW 16.0 mph25.7 kmh 30.05 in1017.6 mb 0.00 in0.0 mm 0.00 in0.0 mm 0.00 in0.0 mm
12:24 AM 51.0°F10.6°C 43.4°F6.3°C 75% 5.5 mph NW8.9 kmh NW 16.0 mph25.7 kmh 30.05 in1017.6 mb 0.00 in0.0 mm 0.00 in0.0 mm 0.00 in0.0 mm
12:29 AM 50.8°F10.4°C 43.2°F6.2°C 75% 3.6 mph NW5.8 kmh NW 14.0 mph22.5 kmh 30.05 in1017.6 mb 0.00 in0.0 mm 0.00 in0.0 mm 0.00 in0.0 mm
12:34 AM 50.6°F10.3°C 43.0°F6.1°C 75% 3.9 mph NW6.3 kmh NW 14.0 mph22.5 kmh 30.06 in1017.9 mb 0.00 in0.0 mm 0.00 in0.0 mm 0.00 in0.0 mm
12:39 AM 50.4°F10.2°C 43.2°F6.2°C 76% 3.6 mph NW5.8 kmh NW 13.0 mph20.9 kmh 30.06 in1017.9 mb 0.00 in0.0 mm 0.00 in0.0 mm 0.00 in0.0 mm
12:44 AM 50.3°F10.2°C 42.8°F6.0°C 75% 4.5 mph WNW7.2 kmh WNW 13.0 mph20.9 kmh 30.06 in1017.9 mb 0.00 in0.0 mm 0.00 in0.0 mm 0.00 in0.0 mm
12:49 AM 50.1°F10.1°C 42.6°F5.9°C 75% 2.6 mph NW4.2 kmh NW 13.0 mph20.9 kmh 30.06 in1017.9 mb 0.00 in0.0 mm 0.00 in0.0 mm 0.00 in0.0 mm
12:54 AM 49.9°F9.9°C 42.4°F5.8°C 75% 2.5 mph WNW4.0 kmh WNW 13.0 mph20.9 kmh 30.06 in1017.9 mb 0.00 in0.0 mm 0.00 in0.0 mm 0.00 in0.0 mm
12:59 AM 49.7°F9.8°C 41.8°F5.4°C 74% 4.2 mph WNW6.8 kmh WNW 13.0 mph20.9 kmh 30.06 in1017.9 mb 0.00 in0.0 mm 0.00 in0.0 mm 0.00 in0.0 mm
01:04 AM 49.5°F9.7°C 42.0°F5.6°C 75% 2.9 mph WNW4.7 kmh WNW 10.0 mph16.1 kmh 30.07 in1018.3 mb 0.00 in0.0 mm 0.00 in0.0 mm 0.00 in0.0 mm
01:09 AM 49.3°F9.6°C 41.4°F5.2°C 74% 3.7 mph WNW6.0 kmh WNW 10.0 mph16.1 kmh 30.07 in1018.3 mb 0.00 in0.0 mm 0.00 in0.0 mm 0.00 in0.0 mm
01:14 AM 49.2°F9.6°C 41.0°F5.0°C 73% 5.6 mph WNW9.0 kmh WNW 12.0 mph19.3 kmh 30.07 in1018.3 mb 0.00 in0.0 mm 0.00 in0.0 mm 0.00 in0.0 mm
01:19 AM 49.1°F9.5°C 40.9°F4.9°C 73% 4.8 mph WNW7.7 kmh WNW 12.0 mph19.3 kmh 30.08 in1018.6 mb 0.00 in0.0 mm 0.00 in0.0 mm 0.00 in0.0 mm
01:24 AM 48.9°F9.4°C 40.4°F4.7°C 72% 4.0 mph NW6.4 kmh NW 12.0 mph19.3 kmh 30.07 in1018.3 mb 0.00 in0.0 mm 0.00 in0.0 mm 0.00 in0.0 mm
01:29 AM 48.8°F9.3°C 39.9°F4.4°C 71% 3.3 mph NW5.3 kmh NW 12.0 mph19.3 kmh 30.08 in1018.6 mb 0.00 in0.0 mm 0.00 in0.0 mm 0.00 in0.0 mm
01:34 AM 48.7°F9.3°C 38.7°F3.7°C 68% 5.9 mph NW9.5 kmh NW 14.0 mph22.5 kmh 30.08 in1018.6 mb 0.00 in0.0 mm 0.00 in0.0 mm 0.00 in0.0 mm
01:39 AM 48.5°F9.2°C 38.1°F3.4°C 67% 4.6 mph NW7.4 kmh NW 14.0 mph22.5 kmh 30.08 in1018.6 mb 0.00 in0.0 mm 0.00 in0.0 mm 0.00 in0.0 mm
01:44 AM 48.4°F9.1°C 37.3°F2.9°C 65% 4.0 mph NW6.4 kmh NW 14.0 mph22.5 kmh 30.08 in1018.6 mb 0.00 in0.0 mm 0.00 in0.0 mm 0.00 in0.0 mm
01:49 AM 48.2°F9.0°C 35.0°F1.7°C 60% 7.3 mph NW11.7 kmh NW 20.0 mph32.2 kmh 30.08 in1018.6 mb 0.00 in0.0 mm 0.00 in0.0 mm 0.00 in0.0 mm
01:54 AM 48.1°F8.9°C 33.2°F0.7°C 56% 6.8 mph NW10.9 kmh NW 20.0 mph32.2 kmh 30.09 in1019.0 mb 0.00 in0.0 mm 0.00 in0.0 mm 0.00 in0.0 mm
01:59 AM 47.9°F8.8°C 32.5°F0.3°C 55% 6.8 mph NW10.9 kmh NW 20.0 mph32.2 kmh 30.09 in1019.0 mb 0.00 in0.0 mm 0.00 in0.0 mm 0.00 in0.0 mm
02:04 AM 47.6°F8.7°C 33.2°F0.7°C 57% 3.1 mph WNW5.0 kmh WNW 20.0 mph32.2 kmh 30.09 in1019.0 mb 0.00 in0.0 mm 0.00 in0.0 mm 0.00 in0.0 mm
02:09 AM 47.3°F8.5°C 33.3°F0.7°C 58% 3.3 mph NW5.3 kmh NW 19.0 mph30.6 kmh 30.09 in1019.0 mb 0.00 in0.0 mm 0.00 in0.0 mm 0.00 in0.0 mm
02:14 AM 47.2°F8.4°C 34.1°F1.2°C 60% 7.3 mph NW11.7 kmh NW 13.0 mph20.9 kmh 30.09 in1019.0 mb 0.00 in0.0 mm 0.00 in0.0 mm 0.00 in0.0 mm
02:19 AM 47.0°F8.3°C 32.6°F0.3°C 57% 6.6 mph NW10.6 kmh NW 16.0 mph25.7 kmh 30.09 in1019.0 mb 0.00 in0.0 mm 0.00 in0.0 mm 0.00 in0.0 mm
02:24 AM 46.8°F8.2°C 32.0°F0.0°C 56% 5.9 mph NW9.5 kmh NW 16.0 mph25.7 kmh 30.09 in1019.0 mb 0.00 in0.0 mm 0.00 in0.0 mm 0.00 in0.0 mm
02:29 AM 46.6°F8.1°C 32.2°F0.1°C 57% 3.6 mph NW5.8 kmh NW 16.0 mph25.7 kmh 30.09 in1019.0 mb 0.00 in0.0 mm 0.00 in0.0 mm 0.00 in0.0 mm
02:34 AM 46.4°F8.0°C 32.5°F0.3°C 58% 4.0 mph NW6.4 kmh NW 16.0 mph25.7 kmh 30.10 in1019.3 mb 0.00 in0.0 mm 0.00 in0.0 mm 0.00 in0.0 mm
02:39 AM 46.2°F7.9°C 32.7°F0.4°C 59% 4.2 mph NW6.8 kmh NW 14.0 mph22.5 kmh 30.10 in1019.3 mb 0.00 in0.0 mm 0.00 in0.0 mm 0.00 in0.0 mm
02:44 AM 46.0°F7.8°C 32.5°F0.3°C 59% 5.9 mph NW9.5 kmh NW 12.0 mph19.3 kmh 30.10 in1019.3 mb 0.00 in0.0 mm 0.00 in0.0 mm 0.00 in0.0 mm
02:49 AM 45.7°F7.6°C 31.8°F-0.1°C 58% 6.0 mph NW9.7 kmh NW 14.0 mph22.5 kmh 30.10 in1019.3 mb 0.00 in0.0 mm 0.00 in0.0 mm 0.00 in0.0 mm
02:54 AM 45.7°F7.6°C 30.9°F-0.6°C 56% 7.3 mph NW11.7 kmh NW 14.0 mph22.5 kmh 30.10 in1019.3 mb 0.00 in0.0 mm 0.00 in0.0 mm 0.00 in0.0 mm
02:59 AM 45.5°F7.5°C 31.6°F-0.2°C 58% 3.8 mph NW6.1 kmh NW 14.0 mph22.5 kmh 30.10 in1019.3 mb 0.00 in0.0 mm 0.00 in0.0 mm 0.00 in0.0 mm
03:04 AM 45.2°F7.3°C 31.7°F-0.2°C 59% 3.4 mph NW5.5 kmh NW 14.0 mph22.5 kmh 30.10 in1019.3 mb 0.00 in0.0 mm 0.00 in0.0 mm 0.00 in0.0 mm
03:09 AM 45.1°F7.3°C 31.3°F-0.4°C 58% 5.5 mph NW8.9 kmh NW 14.0 mph22.5 kmh 30.11 in1019.6 mb 0.00 in0.0 mm 0.00 in0.0 mm 0.00 in0.0 mm
03:14 AM 45.0°F7.2°C 32.0°F0.0°C 60% 2.6 mph WNW4.2 kmh WNW 13.0 mph20.9 kmh 30.10 in1019.3 mb 0.00 in0.0 mm 0.00 in0.0 mm 0.00 in0.0 mm
03:19 AM 44.9°F7.2°C 31.5°F-0.3°C 59% 4.8 mph NW7.7 kmh NW 13.0 mph20.9 kmh 30.11 in1019.6 mb 0.00 in0.0 mm 0.00 in0.0 mm 0.00 in0.0 mm
03:24 AM 44.7°F7.1°C 31.7°F-0.2°C 60% 4.9 mph NW7.9 kmh NW 13.0 mph20.9 kmh 30.11 in1019.6 mb 0.00 in0.0 mm 0.00 in0.0 mm 0.00 in0.0 mm
03:30 AM 44.5°F6.9°C 32.0°F0.0°C 61% 3.9 mph NW6.3 kmh NW 13.0 mph20.9 kmh 30.11 in1019.6 mb 0.00 in0.0 mm 0.00 in0.0 mm 0.00 in0.0 mm
03:33 AM 44.4°F6.9°C 31.5°F-0.3°C 60% 6.0 mph WNW9.7 kmh WNW 21.0 mph33.8 kmh 30.11 in1019.6 mb 0.00 in0.0 mm 0.00 in0.0 mm 0.00 in0.0 mm
03:38 AM 44.3°F6.8°C 31.4°F-0.3°C 60% 5.3 mph NW8.5 kmh NW 21.0 mph33.8 kmh 30.12 in1020.0 mb 0.00 in0.0 mm 0.00 in0.0 mm 0.00 in0.0 mm
03:43 AM 44.3°F6.8°C 30.9°F-0.6°C 59% 5.1 mph NW8.2 kmh NW 21.0 mph33.8 kmh 30.12 in1020.0 mb 0.00 in0.0 mm 0.00 in0.0 mm 0.00 in0.0 mm
03:48 AM 44.1°F6.7°C 31.2°F-0.4°C 60% 4.5 mph NW7.2 kmh NW 21.0 mph33.8 kmh 30.12 in1020.0 mb 0.00 in0.0 mm 0.00 in0.0 mm 0.00 in0.0 mm
03:53 AM 44.0°F6.7°C 30.6°F-0.8°C 59% 5.6 mph WNW9.0 kmh WNW 16.0 mph25.7 kmh 30.12 in1020.0 mb 0.00 in0.0 mm 0.00 in0.0 mm 0.00 in0.0 mm
03:58 AM 44.0°F6.7°C 30.7°F-0.7°C 59% 4.0 mph NW6.4 kmh NW 17.0 mph27.4 kmh 30.12 in1020.0 mb 0.00 in0.0 mm 0.00 in0.0 mm 0.00 in0.0 mm
04:03 AM 43.8°F6.6°C 30.9°F-0.6°C 60% 3.7 mph NW6.0 kmh NW 17.0 mph27.4 kmh 30.12 in1020.0 mb 0.00 in0.0 mm 0.00 in0.0 mm 0.00 in0.0 mm
04:08 AM 43.6°F6.4°C 30.7°F-0.7°C 60% 5.0 mph NW8.0 kmh NW 17.0 mph27.4 kmh 30.12 in1020.0 mb 0.00 in0.0 mm 0.00 in0.0 mm 0.00 in0.0 mm
04:13 AM 43.5°F6.4°C 30.6°F-0.8°C 60% 5.2 mph NW8.4 kmh NW 14.0 mph22.5 kmh 30.13 in1020.3 mb 0.00 in0.0 mm 0.00 in0.0 mm 0.00 in0.0 mm
04:18 AM 43.3°F6.3°C 30.7°F-0.7°C 61% 4.5 mph NW7.2 kmh NW 14.0 mph22.5 kmh 30.13 in1020.3 mb 0.00 in0.0 mm 0.00 in0.0 mm 0.00 in0.0 mm
04:23 AM 43.2°F6.2°C 30.3°F-0.9°C 60% 6.2 mph NW10.0 kmh NW 15.0 mph24.1 kmh 30.13 in1020.3 mb 0.00 in0.0 mm 0.00 in0.0 mm 0.00 in0.0 mm
04:28 AM 43.2°F6.2°C 30.3°F-0.9°C 60% 6.0 mph NW9.7 kmh NW 15.0 mph24.1 kmh 30.13 in1020.3 mb 0.00 in0.0 mm 0.00 in0.0 mm 0.00 in0.0 mm
04:33 AM 43.1°F6.2°C 30.2°F-1.0°C 60% 4.5 mph NW7.2 kmh NW 15.0 mph24.1 kmh 30.14 in1020.7 mb 0.00 in0.0 mm 0.00 in0.0 mm 0.00 in0.0 mm
04:38 AM 43.0°F6.1°C 30.1°F-1.1°C 60% 5.5 mph NW8.9 kmh NW 15.0 mph24.1 kmh 30.14 in1020.7 mb 0.00 in0.0 mm 0.00 in0.0 mm 0.00 in0.0 mm
04:43 AM 42.9°F6.1°C 30.0°F-1.1°C 60% 4.4 mph NW7.1 kmh NW 15.0 mph24.1 kmh 30.14 in1020.7 mb 0.00 in0.0 mm 0.00 in0.0 mm 0.00 in0.0 mm
04:48 AM 42.7°F5.9°C 29.8°F-1.2°C 60% 3.9 mph NW6.3 kmh NW 15.0 mph24.1 kmh 30.14 in1020.7 mb 0.00 in0.0 mm 0.00 in0.0 mm 0.00 in0.0 mm
04:53 AM 42.6°F5.9°C 30.2°F-1.0°C 61% 4.4 mph NW7.1 kmh NW 15.0 mph24.1 kmh 30.14 in1020.7 mb 0.00 in0.0 mm 0.00 in0.0 mm 0.00 in0.0 mm
04:58 AM 42.5°F5.8°C 30.1°F-1.1°C 61% 4.6 mph NW7.4 kmh NW 11.0 mph17.7 kmh 30.15 in1021.0 mb 0.00 in0.0 mm 0.00 in0.0 mm 0.00 in0.0 mm
05:03 AM 42.3°F5.7°C 30.3°F-0.9°C 62% 2.7 mph WNW4.3 kmh WNW 9.0 mph14.5 kmh 30.15 in1021.0 mb 0.00 in0.0 mm 0.00 in0.0 mm 0.00 in0.0 mm
05:08 AM 42.0°F5.6°C 30.8°F-0.7°C 64% 2.9 mph NW4.7 kmh NW 9.0 mph14.5 kmh 30.15 in1021.0 mb 0.00 in0.0 mm 0.00 in0.0 mm 0.00 in0.0 mm
05:13 AM 41.7°F5.4°C 30.9°F-0.6°C 65% 2.9 mph WNW4.7 kmh WNW 9.0 mph14.5 kmh 30.15 in1021.0 mb 0.00 in0.0 mm 0.00 in0.0 mm 0.00 in0.0 mm
05:18 AM 41.6°F5.3°C 30.8°F-0.7°C 65% 3.9 mph WNW6.3 kmh WNW 10.0 mph16.1 kmh 30.16 in1021.3 mb 0.00 in0.0 mm 0.00 in0.0 mm 0.00 in0.0 mm
05:23 AM 41.5°F5.3°C 30.3°F-0.9°C 64% 4.5 mph NW7.2 kmh NW 10.0 mph16.1 kmh 30.16 in1021.3 mb 0.00 in0.0 mm 0.00 in0.0 mm 0.00 in0.0 mm
05:28 AM 41.5°F5.3°C 30.2°F-1.0°C 64% 3.6 mph WNW5.8 kmh WNW 10.0 mph16.1 kmh 30.16 in1021.3 mb 0.00 in0.0 mm 0.00 in0.0 mm 0.00 in0.0 mm
05:33 AM 41.5°F5.3°C 29.9°F-1.2°C 63% 5.9 mph NW9.5 kmh NW 17.0 mph27.4 kmh 30.16 in1021.3 mb 0.00 in0.0 mm 0.00 in0.0 mm 0.00 in0.0 mm
05:39 AM 41.3°F5.2°C 29.7°F-1.3°C 63% 3.4 mph NW5.5 kmh NW 17.0 mph27.4 kmh 30.16 in1021.3 mb 0.00 in0.0 mm 0.00 in0.0 mm 0.00 in0.0 mm
05:44 AM 41.2°F5.1°C 29.6°F-1.3°C 63% 3.3 mph NW5.3 kmh NW 17.0 mph27.4 kmh 30.16 in1021.3 mb 0.00 in0.0 mm 0.00 in0.0 mm 0.00 in0.0 mm
05:48 AM 41.2°F5.1°C 29.2°F-1.6°C 62% 5.4 mph NW8.7 kmh NW 17.0 mph27.4 kmh 30.16 in1021.3 mb 0.00 in0.0 mm 0.00 in0.0 mm 0.00 in0.0 mm
05:54 AM 41.1°F5.1°C 29.1°F-1.6°C 62% 2.7 mph NW4.3 kmh NW 9.0 mph14.5 kmh 30.16 in1021.3 mb 0.00 in0.0 mm 0.00 in0.0 mm 0.00 in0.0 mm
05:58 AM 40.9°F4.9°C 29.0°F-1.7°C 62% 3.2 mph NW5.1 kmh NW 9.0 mph14.5 kmh 30.17 in1021.7 mb 0.00 in0.0 mm 0.00 in0.0 mm 0.00 in0.0 mm
06:04 AM 40.8°F4.9°C 28.9°F-1.7°C 62% 3.5 mph NW5.6 kmh NW 9.0 mph14.5 kmh 30.17 in1021.7 mb 0.00 in0.0 mm 0.00 in0.0 mm 0.00 in0.0 mm
06:09 AM 40.6°F4.8°C 29.1°F-1.6°C 63% 2.2 mph NW3.5 kmh NW 8.0 mph12.9 kmh 30.17 in1021.7 mb 0.00 in0.0 mm 0.00 in0.0 mm 0.00 in0.0 mm
06:14 AM 40.5°F4.7°C 29.0°F-1.7°C 63% 3.3 mph NW5.3 kmh NW 8.0 mph12.9 kmh 30.17 in1021.7 mb 0.00 in0.0 mm 0.00 in0.0 mm 0.00 in0.0 mm
06:19 AM 40.3°F4.6°C 29.2°F-1.6°C 64% 1.8 mph WNW2.9 kmh WNW 8.0 mph12.9 kmh 30.17 in1021.7 mb 0.00 in0.0 mm 0.00 in0.0 mm 0.00 in0.0 mm
06:24 AM 40.1°F4.5°C 29.0°F-1.7°C 64% 1.8 mph NW2.9 kmh NW 7.0 mph11.3 kmh 30.17 in1021.7 mb 0.00 in0.0 mm 0.00 in0.0 mm 0.00 in0.0 mm
06:29 AM 40.0°F4.4°C 28.9°F-1.7°C 64% 1.8 mph WNW2.9 kmh WNW 7.0 mph11.3 kmh 30.17 in1021.7 mb 0.00 in0.0 mm 0.00 in0.0 mm 0.00 in0.0 mm
06:34 AM 39.8°F4.3°C 29.1°F-1.6°C 65% 2.2 mph WNW3.5 kmh WNW 7.0 mph11.3 kmh 30.17 in1021.7 mb 0.00 in0.0 mm 0.00 in0.0 mm 0.00 in0.0 mm
06:39 AM 39.8°F4.3°C 29.0°F-1.7°C 65% 3.1 mph WNW5.0 kmh WNW 8.0 mph12.9 kmh 30.17 in1021.7 mb 0.00 in0.0 mm 0.00 in0.0 mm 0.00 in0.0 mm
06:44 AM 39.6°F4.2°C 29.3°F-1.5°C 66% 3.2 mph WNW5.1 kmh WNW 8.0 mph12.9 kmh 30.18 in1022.0 mb 0.00 in0.0 mm 0.00 in0.0 mm 0.00 in0.0 mm
06:49 AM 39.5°F4.2°C 29.2°F-1.6°C 66% 3.5 mph WNW5.6 kmh WNW 8.0 mph12.9 kmh 30.18 in1022.0 mb 0.00 in0.0 mm 0.00 in0.0 mm 0.00 in0.0 mm
06:54 AM 39.5°F4.2°C 29.5°F-1.4°C 67% 2.5 mph WNW4.0 kmh WNW 8.0 mph12.9 kmh 30.18 in1022.0 mb 0.00 in0.0 mm 0.00 in0.0 mm 0.00 in0.0 mm
06:59 AM 39.3°F4.1°C 29.3°F-1.5°C 67% 2.7 mph W4.3 kmh W 8.0 mph12.9 kmh 30.18 in1022.0 mb 0.00 in0.0 mm 0.00 in0.0 mm 0.00 in0.0 mm
07:04 AM 39.3°F4.1°C 29.3°F-1.5°C 67% 2.4 mph W3.9 kmh W 8.0 mph12.9 kmh 30.18 in1022.0 mb 0.00 in0.0 mm 0.00 in0.0 mm 0.00 in0.0 mm
07:09 AM 39.2°F4.0°C 29.6°F-1.3°C 68% 2.4 mph W3.9 kmh W 8.0 mph12.9 kmh 30.19 in1022.4 mb 0.00 in0.0 mm 0.00 in0.0 mm 0.00 in0.0 mm
07:14 AM 39.1°F3.9°C 29.8°F-1.2°C 69% 2.1 mph W3.4 kmh W 8.0 mph12.9 kmh 30.19 in1022.4 mb 0.00 in0.0 mm 0.00 in0.0 mm 0.00 in0.0 mm
07:19 AM 38.9°F3.8°C 29.7°F-1.3°C 69% 2.4 mph W3.9 kmh W 8.0 mph12.9 kmh 30.20 in1022.7 mb 0.00 in0.0 mm 0.00 in0.0 mm 0.00 in0.0 mm
07:24 AM 38.8°F3.8°C 29.8°F-1.2°C 70% 2.4 mph W3.9 kmh W 8.0 mph12.9 kmh 30.20 in1022.7 mb 0.00 in0.0 mm 0.00 in0.0 mm 0.00 in0.0 mm
07:29 AM 38.6°F3.7°C 29.7°F-1.3°C 70% 1.8 mph W2.9 kmh W 8.0 mph12.9 kmh 30.20 in1022.7 mb 0.00 in0.0 mm 0.00 in0.0 mm 0.00 in0.0 mm
07:34 AM 38.4°F3.6°C 29.5°F-1.4°C 70% 1.4 mph W2.3 kmh W 7.0 mph11.3 kmh 30.20 in1022.7 mb 0.00 in0.0 mm 0.00 in0.0 mm 0.00 in0.0 mm
07:39 AM 38.4°F3.6°C 29.9°F-1.2°C 71% 2.5 mph W4.0 kmh W 6.0 mph9.7 kmh 30.20 in1022.7 mb 0.00 in0.0 mm 0.00 in0.0 mm 0.00 in0.0 mm
07:44 AM 38.4°F3.6°C 29.9°F-1.2°C 71% 2.3 mph W3.7 kmh W 6.0 mph9.7 kmh 30.20 in1022.7 mb 0.00 in0.0 mm 0.00 in0.0 mm 0.00 in0.0 mm
07:49 AM 38.4°F3.6°C 29.8°F-1.2°C 71% 1.5 mph WSW2.4 kmh WSW 6.0 mph9.7 kmh 30.21 in1023.0 mb 0.00 in0.0 mm 0.00 in0.0 mm 0.00 in0.0 mm
07:54 AM 38.4°F3.6°C 29.9°F-1.2°C 71% 1.7 mph W2.7 kmh W 6.0 mph9.7 kmh 30.21 in1023.0 mb 0.00 in0.0 mm 0.00 in0.0 mm 0.00 in0.0 mm
07:59 AM 38.4°F3.6°C 30.2°F-1.0°C 72% 1.6 mph W2.6 kmh W 5.0 mph8.0 kmh 30.21 in1023.0 mb 0.00 in0.0 mm 0.00 in0.0 mm 0.00 in0.0 mm
08:04 AM 38.7°F3.7°C 30.2°F-1.0°C 71% 2.7 mph W4.3 kmh W 5.0 mph8.0 kmh 30.21 in1023.0 mb 0.00 in0.0 mm 0.00 in0.0 mm 0.00 in0.0 mm
08:09 AM 39.0°F3.9°C 30.4°F-0.9°C 71% 3.8 mph W6.1 kmh W 7.0 mph11.3 kmh 30.22 in1023.4 mb 0.00 in0.0 mm 0.00 in0.0 mm 0.00 in0.0 mm
08:14 AM 39.3°F4.1°C 31.0°F-0.6°C 72% 2.3 mph W3.7 kmh W 7.0 mph11.3 kmh 30.22 in1023.4 mb 0.00 in0.0 mm 0.00 in0.0 mm 0.00 in0.0 mm
08:19 AM 39.5°F4.2°C 30.9°F-0.6°C 71% 3.1 mph W5.0 kmh W 7.0 mph11.3 kmh 30.22 in1023.4 mb 0.00 in0.0 mm 0.00 in0.0 mm 0.00 in0.0 mm
08:24 AM 39.5°F4.2°C 30.6°F-0.8°C 70% 2.9 mph WSW4.7 kmh WSW 11.0 mph17.7 kmh 30.22 in1023.4 mb 0.00 in0.0 mm 0.00 in0.0 mm 0.00 in0.0 mm
08:29 AM 39.6°F4.2°C 31.0°F-0.6°C 71% 3.6 mph W5.8 kmh W 11.0 mph17.7 kmh 30.22 in1023.4 mb 0.00 in0.0 mm 0.00 in0.0 mm 0.00 in0.0 mm
08:34 AM 39.6°F4.2°C 31.0°F-0.6°C 71% 3.4 mph WNW5.5 kmh WNW 11.0 mph17.7 kmh 30.22 in1023.4 mb 0.00 in0.0 mm 0.00 in0.0 mm 0.00 in0.0 mm
08:39 AM 39.7°F4.3°C 31.1°F-0.5°C 71% 2.9 mph WNW4.7 kmh WNW 11.0 mph17.7 kmh 30.22 in1023.4 mb 0.00 in0.0 mm 0.00 in0.0 mm 0.00 in0.0 mm
08:44 AM 39.9°F4.4°C 31.3°F-0.4°C 71% 3.2 mph WNW5.1 kmh WNW 11.0 mph17.7 kmh 30.22 in1023.4 mb 0.00 in0.0 mm 0.00 in0.0 mm 0.00 in0.0 mm
08:49 AM 40.1°F4.5°C 31.5°F-0.3°C 71% 3.4 mph WNW5.5 kmh WNW 11.0 mph17.7 kmh 30.22 in1023.4 mb 0.00 in0.0 mm 0.00 in0.0 mm 0.00 in0.0 mm
08:54 AM 40.2°F4.6°C 31.6°F-0.2°C 71% 2.6 mph WNW4.2 kmh WNW 11.0 mph17.7 kmh 30.22 in1023.4 mb 0.00 in0.0 mm 0.00 in0.0 mm 0.00 in0.0 mm
08:59 AM 40.4°F4.7°C 31.5°F-0.3°C 70% 4.2 mph NW6.8 kmh NW 12.0 mph19.3 kmh 30.22 in1023.4 mb 0.00 in0.0 mm 0.00 in0.0 mm 0.00 in0.0 mm
09:04 AM 40.7°F4.8°C 31.8°F-0.1°C 70% 3.6 mph WNW5.8 kmh WNW 12.0 mph19.3 kmh 30.22 in1023.4 mb 0.00 in0.0 mm 0.00 in0.0 mm 0.00 in0.0 mm
09:09 AM 41.2°F5.1°C 31.9°F-0.1°C 69% 4.7 mph WNW7.6 kmh WNW 16.0 mph25.7 kmh 30.22 in1023.4 mb 0.00 in0.0 mm 0.00 in0.0 mm 0.00 in0.0 mm
09:14 AM 41.7°F5.4°C 31.3°F-0.4°C 66% 5.1 mph WNW8.2 kmh WNW 16.0 mph25.7 kmh 30.22 in1023.4 mb 0.00 in0.0 mm 0.00 in0.0 mm 0.00 in0.0 mm
09:19 AM 42.0°F5.6°C 31.5°F-0.3°C 66% 3.7 mph NW6.0 kmh NW 16.0 mph25.7 kmh 30.22 in1023.4 mb 0.00 in0.0 mm 0.00 in0.0 mm 0.00 in0.0 mm
09:24 AM 41.9°F5.5°C 31.1°F-0.5°C 65% 5.4 mph NW8.7 kmh NW 16.0 mph25.7 kmh 30.23 in1023.7 mb 0.00 in0.0 mm 0.00 in0.0 mm 0.00 in0.0 mm
09:29 AM 41.8°F5.4°C 30.5°F-0.8°C 64% 6.6 mph NW10.6 kmh NW 12.0 mph19.3 kmh 30.23 in1023.7 mb 0.00 in0.0 mm 0.00 in0.0 mm 0.00 in0.0 mm
09:33 AM 41.7°F5.4°C 30.9°F-0.6°C 65% 4.4 mph WNW7.1 kmh WNW 12.0 mph19.3 kmh 30.23 in1023.7 mb 0.00 in0.0 mm 0.00 in0.0 mm 0.00 in0.0 mm
09:38 AM 41.8°F5.4°C 31.4°F-0.3°C 66% 2.8 mph WNW4.5 kmh WNW 12.0 mph19.3 kmh 30.23 in1023.7 mb 0.00 in0.0 mm 0.00 in0.0 mm 0.00 in0.0 mm
09:43 AM 41.8°F5.4°C 29.8°F-1.2°C 62% 6.8 mph NW10.9 kmh NW 13.0 mph20.9 kmh 30.23 in1023.7 mb 0.00 in0.0 mm 0.00 in0.0 mm 0.00 in0.0 mm
09:48 AM 41.9°F5.5°C 30.7°F-0.7°C 64% 6.2 mph NW10.0 kmh NW 14.0 mph22.5 kmh 30.23 in1023.7 mb 0.00 in0.0 mm 0.00 in0.0 mm 0.00 in0.0 mm
09:53 AM 42.2°F5.7°C 30.2°F-1.0°C 62% 4.4 mph NW7.1 kmh NW 14.0 mph22.5 kmh 30.24 in1024.0 mb 0.00 in0.0 mm 0.00 in0.0 mm 0.00 in0.0 mm
09:58 AM 42.7°F5.9°C 30.3°F-0.9°C 61% 7.1 mph NW11.4 kmh NW 14.0 mph22.5 kmh 30.24 in1024.0 mb 0.00 in0.0 mm 0.00 in0.0 mm 0.00 in0.0 mm
10:03 AM 43.0°F6.1°C 30.5°F-0.8°C 61% 5.0 mph NW8.0 kmh NW 14.0 mph22.5 kmh 30.23 in1023.7 mb 0.00 in0.0 mm 0.00 in0.0 mm 0.00 in0.0 mm
10:08 AM 43.5°F6.4°C 29.8°F-1.2°C 58% 5.7 mph NW9.2 kmh NW 11.0 mph17.7 kmh 30.24 in1024.0 mb 0.00 in0.0 mm 0.00 in0.0 mm 0.00 in0.0 mm
10:13 AM 43.9°F6.6°C 29.2°F-1.6°C 56% 5.0 mph NW8.0 kmh NW 13.0 mph20.9 kmh 30.24 in1024.0 mb 0.00 in0.0 mm 0.00 in0.0 mm 0.00 in0.0 mm
10:18 AM 44.0°F6.7°C 28.9°F-1.7°C 55% 7.2 mph NW11.6 kmh NW 13.0 mph20.9 kmh 30.24 in1024.0 mb 0.00 in0.0 mm 0.00 in0.0 mm 0.00 in0.0 mm
10:23 AM 44.4°F6.9°C 30.2°F-1.0°C 57% 2.3 mph NW3.7 kmh NW 13.0 mph20.9 kmh 30.24 in1024.0 mb 0.00 in0.0 mm 0.00 in0.0 mm 0.00 in0.0 mm
10:28 AM 44.4°F6.9°C 27.9°F-2.3°C 52% 7.8 mph NW12.6 kmh NW 14.0 mph22.5 kmh 30.24 in1024.0 mb 0.00 in0.0 mm 0.00 in0.0 mm 0.00 in0.0 mm
10:33 AM 44.8°F7.1°C 28.2°F-2.1°C 52% 5.9 mph NW9.5 kmh NW 15.0 mph24.1 kmh 30.24 in1024.0 mb 0.00 in0.0 mm 0.00 in0.0 mm 0.00 in0.0 mm
10:38 AM 45.1°F7.3°C 28.5°F-1.9°C 52% 4.9 mph NW7.9 kmh NW 15.0 mph24.1 kmh 30.24 in1024.0 mb 0.00 in0.0 mm 0.00 in0.0 mm 0.00 in0.0 mm
10:43 AM 45.1°F7.3°C 27.6°F-2.4°C 50% 6.4 mph NW10.3 kmh NW 15.0 mph24.1 kmh 30.24 in1024.0 mb 0.00 in0.0 mm 0.00 in0.0 mm 0.00 in0.0 mm
10:48 AM 45.6°F7.6°C 27.5°F-2.5°C 49% 4.1 mph NW6.6 kmh NW 15.0 mph24.1 kmh 30.24 in1024.0 mb 0.00 in0.0 mm 0.00 in0.0 mm 0.00 in0.0 mm
10:53 AM 46.1°F7.8°C 27.9°F-2.3°C 49% 5.1 mph NW8.2 kmh NW 14.0 mph22.5 kmh 30.24 in1024.0 mb 0.00 in0.0 mm 0.00 in0.0 mm 0.00 in0.0 mm
10:58 AM 46.3°F7.9°C 28.1°F-2.2°C 49% 6.9 mph NW11.1 kmh NW 14.0 mph22.5 kmh 30.24 in1024.0 mb 0.00 in0.0 mm 0.00 in0.0 mm 0.00 in0.0 mm
11:03 AM 46.6°F8.1°C 28.4°F-2.0°C 49% 4.6 mph NW7.4 kmh NW 14.0 mph22.5 kmh 30.23 in1023.7 mb 0.00 in0.0 mm 0.00 in0.0 mm 0.00 in0.0 mm
11:08 AM 46.4°F8.0°C 27.7°F-2.4°C 48% 5.9 mph NW9.5 kmh NW 14.0 mph22.5 kmh 30.23 in1023.7 mb 0.00 in0.0 mm 0.00 in0.0 mm 0.00 in0.0 mm
11:13 AM 46.6°F8.1°C 27.9°F-2.3°C 48% 4.9 mph NW7.9 kmh NW 14.0 mph22.5 kmh 30.23 in1023.7 mb 0.00 in0.0 mm 0.00 in0.0 mm 0.00 in0.0 mm
11:18 AM 47.1°F8.4°C 28.3°F-2.1°C 48% 4.8 mph NW7.7 kmh NW 13.0 mph20.9 kmh 30.23 in1023.7 mb 0.00 in0.0 mm 0.00 in0.0 mm 0.00 in0.0 mm
11:23 AM 47.1°F8.4°C 26.8°F-2.9°C 45% 5.0 mph NNW8.0 kmh NNW 15.0 mph24.1 kmh 30.23 in1023.7 mb 0.00 in0.0 mm 0.00 in0.0 mm 0.00 in0.0 mm
11:28 AM 47.7°F8.7°C 27.3°F-2.6°C 45% 5.6 mph NNW9.0 kmh NNW 15.0 mph24.1 kmh 30.23 in1023.7 mb 0.00 in0.0 mm 0.00 in0.0 mm 0.00 in0.0 mm
11:33 AM 47.7°F8.7°C 27.3°F-2.6°C 45% 3.4 mph NW5.5 kmh NW 15.0 mph24.1 kmh 30.23 in1023.7 mb 0.00 in0.0 mm 0.00 in0.0 mm 0.00 in0.0 mm
11:38 AM 47.7°F8.7°C 26.7°F-2.9°C 44% 6.7 mph NW10.8 kmh NW 15.0 mph24.1 kmh 30.23 in1023.7 mb 0.00 in0.0 mm 0.00 in0.0 mm 0.00 in0.0 mm
11:43 AM 48.0°F8.9°C 27.1°F-2.7°C 44% 5.1 mph WNW8.2 kmh WNW 15.0 mph24.1 kmh 30.23 in1023.7 mb 0.00 in0.0 mm 0.00 in0.0 mm 0.00 in0.0 mm
11:48 AM 48.2°F9.0°C 26.0°F-3.3°C 42% 6.2 mph NW10.0 kmh NW 15.0 mph24.1 kmh 30.23 in1023.7 mb 0.00 in0.0 mm 0.00 in0.0 mm 0.00 in0.0 mm
11:53 AM 48.4°F9.1°C 27.4°F-2.6°C 44% 7.0 mph NW11.3 kmh NW 15.0 mph24.1 kmh 30.23 in1023.7 mb 0.00 in0.0 mm 0.00 in0.0 mm 0.00 in0.0 mm
11:58 AM 48.4°F9.1°C 27.4°F-2.6°C 44% 6.5 mph NW10.5 kmh NW 14.0 mph22.5 kmh 30.23 in1023.7 mb 0.00 in0.0 mm 0.00 in0.0 mm 0.00 in0.0 mm
12:03 PM 48.7°F9.3°C 26.0°F-3.3°C 41% 8.5 mph WNW13.7 kmh WNW 14.0 mph22.5 kmh 30.23 in1023.7 mb 0.00 in0.0 mm 0.00 in0.0 mm 0.00 in0.0 mm
12:08 PM 48.9°F9.4°C 26.0°F-3.3°C 41% 8.0 mph NW12.9 kmh NW 18.0 mph29.0 kmh 30.22 in1023.4 mb 0.00 in0.0 mm 0.00 in0.0 mm 0.00 in0.0 mm
12:13 PM 49.0°F9.4°C 25.7°F-3.5°C 40% 8.5 mph NW13.7 kmh NW 18.0 mph29.0 kmh 30.22 in1023.4 mb 0.00 in0.0 mm 0.00 in0.0 mm 0.00 in0.0 mm
12:18 PM 49.3°F9.6°C 25.4°F-3.7°C 39% 7.0 mph NW11.3 kmh NW 18.0 mph29.0 kmh 30.22 in1023.4 mb 0.00 in0.0 mm 0.00 in0.0 mm 0.00 in0.0 mm
12:23 PM 49.7°F9.8°C 26.2°F-3.2°C 40% 4.8 mph NW7.7 kmh NW 18.0 mph29.0 kmh 30.22 in1023.4 mb 0.00 in0.0 mm 0.00 in0.0 mm 0.00 in0.0 mm
12:28 PM 49.9°F9.9°C 24.4°F-4.2°C 37% 6.7 mph NW10.8 kmh NW 15.0 mph24.1 kmh 30.22 in1023.4 mb 0.00 in0.0 mm 0.00 in0.0 mm 0.00 in0.0 mm
12:33 PM 50.0°F10.0°C 25.2°F-3.8°C 38% 5.8 mph NW9.3 kmh NW 13.0 mph20.9 kmh 30.21 in1023.0 mb 0.00 in0.0 mm 0.00 in0.0 mm 0.00 in0.0 mm
12:38 PM 50.3°F10.2°C 24.8°F-4.0°C 37% 6.8 mph WNW10.9 kmh WNW 17.0 mph27.4 kmh 30.21 in1023.0 mb 0.00 in0.0 mm 0.00 in0.0 mm 0.00 in0.0 mm
12:43 PM 50.4°F10.2°C 25.7°F-3.5°C 38% 5.4 mph NW8.7 kmh NW 17.0 mph27.4 kmh 30.21 in1023.0 mb 0.00 in0.0 mm 0.00 in0.0 mm 0.00 in0.0 mm
12:48 PM 50.8°F10.4°C 25.9°F-3.4°C 38% 5.0 mph NW8.0 kmh NW 17.0 mph27.4 kmh 30.21 in1023.0 mb 0.00 in0.0 mm 0.00 in0.0 mm 0.00 in0.0 mm
12:53 PM 51.0°F10.6°C 25.6°F-3.6°C 37% 5.7 mph NW9.2 kmh NW 17.0 mph27.4 kmh 30.20 in1022.7 mb 0.00 in0.0 mm 0.00 in0.0 mm 0.00 in0.0 mm
12:58 PM 51.2°F10.7°C 24.9°F-3.9°C 36% 5.6 mph NW9.0 kmh NW 19.0 mph30.6 kmh 30.20 in1022.7 mb 0.00 in0.0 mm 0.00 in0.0 mm 0.00 in0.0 mm
01:03 PM 51.7°F10.9°C 25.4°F-3.7°C 36% 5.9 mph NW9.5 kmh NW 19.0 mph30.6 kmh 30.20 in1022.7 mb 0.00 in0.0 mm 0.00 in0.0 mm 0.00 in0.0 mm
01:08 PM 51.7°F10.9°C 25.6°F-3.6°C 36% 5.5 mph NNW8.9 kmh NNW 19.0 mph30.6 kmh 30.20 in1022.7 mb 0.00 in0.0 mm 0.00 in0.0 mm 0.00 in0.0 mm
01:13 PM 52.6°F11.4°C 25.5°F-3.6°C 35% 4.1 mph NNW6.6 kmh NNW 19.0 mph30.6 kmh 30.19 in1022.4 mb 0.00 in0.0 mm 0.00 in0.0 mm 0.00 in0.0 mm
01:18 PM 52.5°F11.4°C 25.6°F-3.6°C 35% 5.1 mph NNW8.2 kmh NNW 14.0 mph22.5 kmh 30.19 in1022.4 mb 0.00 in0.0 mm 0.00 in0.0 mm 0.00 in0.0 mm
01:23 PM 52.5°F11.4°C 24.9°F-3.9°C 34% 5.9 mph NNW9.5 kmh NNW 14.0 mph22.5 kmh 30.19 in1022.4 mb 0.00 in0.0 mm 0.00 in0.0 mm 0.00 in0.0 mm
01:28 PM 52.9°F11.6°C 25.0°F-3.9°C 34% 5.7 mph NW9.2 kmh NW 14.0 mph22.5 kmh 30.19 in1022.4 mb 0.00 in0.0 mm 0.00 in0.0 mm 0.00 in0.0 mm
01:33 PM 53.3°F11.8°C 25.4°F-3.7°C 34% 3.6 mph NW5.8 kmh NW 14.0 mph22.5 kmh 30.18 in1022.0 mb 0.00 in0.0 mm 0.00 in0.0 mm 0.00 in0.0 mm
01:38 PM 53.2°F11.8°C 25.3°F-3.7°C 34% 3.6 mph WNW5.8 kmh WNW 14.0 mph22.5 kmh 30.18 in1022.0 mb 0.00 in0.0 mm 0.00 in0.0 mm 0.00 in0.0 mm
01:43 PM 53.1°F11.7°C 25.9°F-3.4°C 35% 4.6 mph WNW7.4 kmh WNW 14.0 mph22.5 kmh 30.18 in1022.0 mb 0.00 in0.0 mm 0.00 in0.0 mm 0.00 in0.0 mm
01:48 PM 53.2°F11.8°C 26.0°F-3.3°C 35% 2.9 mph NW4.7 kmh NW 14.0 mph22.5 kmh 30.17 in1021.7 mb 0.00 in0.0 mm 0.00 in0.0 mm 0.00 in0.0 mm
01:53 PM 53.8°F12.1°C 23.6°F-4.7°C 31% 7.1 mph NW11.4 kmh NW 16.0 mph25.7 kmh 30.17 in1021.7 mb 0.00 in0.0 mm 0.00 in0.0 mm 0.00 in0.0 mm
01:58 PM 53.9°F12.2°C 23.7°F-4.6°C 31% 4.7 mph NW7.6 kmh NW 16.0 mph25.7 kmh 30.17 in1021.7 mb 0.00 in0.0 mm 0.00 in0.0 mm 0.00 in0.0 mm
02:03 PM 54.1°F12.3°C 23.1°F-4.9°C 30% 7.5 mph NW12.1 kmh NW 16.0 mph25.7 kmh 30.17 in1021.7 mb 0.00 in0.0 mm 0.00 in0.0 mm 0.00 in0.0 mm
02:08 PM 54.5°F12.5°C 22.9°F-5.1°C 29% 3.3 mph NW5.3 kmh NW 16.0 mph25.7 kmh 30.17 in1021.7 mb 0.00 in0.0 mm 0.00 in0.0 mm 0.00 in0.0 mm
02:13 PM 54.3°F12.4°C 22.7°F-5.2°C 29% 4.8 mph NW7.7 kmh NW 13.0 mph20.9 kmh 30.17 in1021.7 mb 0.00 in0.0 mm 0.00 in0.0 mm 0.00 in0.0 mm
02:18 PM 54.2°F12.3°C 23.4°F-4.8°C 30% 3.8 mph NW6.1 kmh NW 12.0 mph19.3 kmh 30.17 in1021.7 mb 0.00 in0.0 mm 0.00 in0.0 mm 0.00 in0.0 mm
02:23 PM 54.7°F12.6°C 23.8°F-4.6°C 30% 2.6 mph NW4.2 kmh NW 11.0 mph17.7 kmh 30.16 in1021.3 mb 0.00 in0.0 mm 0.00 in0.0 mm 0.00 in0.0 mm
02:28 PM 54.8°F12.7°C 23.1°F-4.9°C 29% 3.8 mph W6.1 kmh W 11.0 mph17.7 kmh 30.16 in1021.3 mb 0.00 in0.0 mm 0.00 in0.0 mm 0.00 in0.0 mm
02:33 PM 55.1°F12.8°C 23.2°F-4.9°C 29% 3.1 mph NW5.0 kmh NW 10.0 mph16.1 kmh 30.15 in1021.0 mb 0.00 in0.0 mm 0.00 in0.0 mm 0.00 in0.0 mm
02:38 PM 55.6°F13.1°C 22.8°F-5.1°C 28% 3.3 mph NW5.3 kmh NW 10.0 mph16.1 kmh 30.15 in1021.0 mb 0.00 in0.0 mm 0.00 in0.0 mm 0.00 in0.0 mm
02:43 PM 55.5°F13.1°C 22.7°F-5.2°C 28% 3.8 mph WNW6.1 kmh WNW 10.0 mph16.1 kmh 30.15 in1021.0 mb 0.00 in0.0 mm 0.00 in0.0 mm 0.00 in0.0 mm
02:48 PM 56.0°F13.3°C 24.0°F-4.4°C 29% 3.2 mph WNW5.1 kmh WNW 10.0 mph16.1 kmh 30.15 in1021.0 mb 0.00 in0.0 mm 0.00 in0.0 mm 0.00 in0.0 mm
02:53 PM 56.1°F13.4°C 24.9°F-3.9°C 30% 3.9 mph WNW6.3 kmh WNW 11.0 mph17.7 kmh 30.15 in1021.0 mb 0.00 in0.0 mm 0.00 in0.0 mm 0.00 in0.0 mm
02:58 PM 56.3°F13.5°C 23.6°F-4.7°C 28% 3.4 mph NW5.5 kmh NW 11.0 mph17.7 kmh 30.15 in1021.0 mb 0.00 in0.0 mm 0.00 in0.0 mm 0.00 in0.0 mm
03:03 PM 56.5°F13.6°C 22.7°F-5.2°C 27% 2.2 mph W3.5 kmh W 11.0 mph17.7 kmh 30.15 in1021.0 mb 0.00 in0.0 mm 0.00 in0.0 mm 0.00 in0.0 mm
03:08 PM 56.6°F13.7°C 22.8°F-5.1°C 27% 2.9 mph NW4.7 kmh NW 11.0 mph17.7 kmh 30.15 in1021.0 mb 0.00 in0.0 mm 0.00 in0.0 mm 0.00 in0.0 mm
03:13 PM 56.8°F13.8°C 23.0°F-5.0°C 27% 2.4 mph NW3.9 kmh NW 11.0 mph17.7 kmh 30.15 in1021.0 mb 0.00 in0.0 mm 0.00 in0.0 mm 0.00 in0.0 mm
03:18 PM 56.9°F13.8°C 23.1°F-4.9°C 27% 4.3 mph NW6.9 kmh NW 9.0 mph14.5 kmh 30.15 in1021.0 mb 0.00 in0.0 mm 0.00 in0.0 mm 0.00 in0.0 mm
03:23 PM 57.1°F13.9°C 22.5°F-5.3°C 26% 3.3 mph NW5.3 kmh NW 11.0 mph17.7 kmh 30.15 in1021.0 mb 0.00 in0.0 mm 0.00 in0.0 mm 0.00 in0.0 mm
03:28 PM 57.0°F13.9°C 23.3°F-4.8°C 27% 4.3 mph NW6.9 kmh NW 11.0 mph17.7 kmh 30.15 in1021.0 mb 0.00 in0.0 mm 0.00 in0.0 mm 0.00 in0.0 mm
03:32 PM 57.2°F14.0°C 23.5°F-4.7°C 27% 4.6 mph WNW7.4 kmh WNW 11.0 mph17.7 kmh 30.15 in1021.0 mb 0.00 in0.0 mm 0.00 in0.0 mm 0.00 in0.0 mm
03:37 PM 57.3°F14.1°C 22.5°F-5.3°C 26% 2.2 mph WNW3.5 kmh WNW 11.0 mph17.7 kmh 30.15 in1021.0 mb 0.00 in0.0 mm 0.00 in0.0 mm 0.00 in0.0 mm
03:42 PM 57.5°F14.2°C 22.7°F-5.2°C 26% 4.9 mph NW7.9 kmh NW 10.0 mph16.1 kmh 30.15 in1021.0 mb 0.00 in0.0 mm 0.00 in0.0 mm 0.00 in0.0 mm
03:47 PM 57.4°F14.1°C 22.6°F-5.2°C 26% 1.6 mph NW2.6 kmh NW 10.0 mph16.1 kmh 30.16 in1021.3 mb 0.00 in0.0 mm 0.00 in0.0 mm 0.00 in0.0 mm
03:52 PM 57.5°F14.2°C 21.8°F-5.7°C 25% 5.1 mph NW8.2 kmh NW 10.0 mph16.1 kmh 30.15 in1021.0 mb 0.00 in0.0 mm 0.00 in0.0 mm 0.00 in0.0 mm
03:57 PM 57.7°F14.3°C 22.0°F-5.6°C 25% 4.7 mph WNW7.6 kmh WNW 14.0 mph22.5 kmh 30.16 in1021.3 mb 0.00 in0.0 mm 0.00 in0.0 mm 0.00 in0.0 mm
04:02 PM 57.7°F14.3°C 22.1°F-5.5°C 25% 3.6 mph NW5.8 kmh NW 14.0 mph22.5 kmh 30.16 in1021.3 mb 0.00 in0.0 mm 0.00 in0.0 mm 0.00 in0.0 mm
04:07 PM 57.6°F14.2°C 21.0°F-6.1°C 24% 4.0 mph NW6.4 kmh NW 14.0 mph22.5 kmh 30.15 in1021.0 mb 0.00 in0.0 mm 0.00 in0.0 mm 0.00 in0.0 mm
04:12 PM 57.6°F14.2°C 21.0°F-6.1°C 24% 5.7 mph WNW9.2 kmh WNW 14.0 mph22.5 kmh 30.15 in1021.0 mb 0.00 in0.0 mm 0.00 in0.0 mm 0.00 in0.0 mm
04:17 PM 57.5°F14.2°C 20.8°F-6.2°C 24% 5.7 mph WNW9.2 kmh WNW 11.0 mph17.7 kmh 30.15 in1021.0 mb 0.00 in0.0 mm 0.00 in0.0 mm 0.00 in0.0 mm
04:22 PM 57.8°F14.3°C 22.0°F-5.6°C 25% 3.4 mph WNW5.5 kmh WNW 11.0 mph17.7 kmh 30.15 in1021.0 mb 0.00 in0.0 mm 0.00 in0.0 mm 0.00 in0.0 mm
04:27 PM 57.9°F14.4°C 22.1°F-5.5°C 25% 4.3 mph W6.9 kmh W 11.0 mph17.7 kmh 30.15 in1021.0 mb 0.00 in0.0 mm 0.00 in0.0 mm 0.00 in0.0 mm
04:32 PM 57.8°F14.3°C 22.0°F-5.6°C 25% 5.3 mph NW8.5 kmh NW 11.0 mph17.7 kmh 30.15 in1021.0 mb 0.00 in0.0 mm 0.00 in0.0 mm 0.00 in0.0 mm
04:37 PM 57.7°F14.3°C 21.0°F-6.1°C 24% 5.9 mph WNW9.5 kmh WNW 13.0 mph20.9 kmh 30.15 in1021.0 mb 0.00 in0.0 mm 0.00 in0.0 mm 0.00 in0.0 mm
04:42 PM 57.7°F14.3°C 21.1°F-6.1°C 24% 7.6 mph WNW12.2 kmh WNW 13.0 mph20.9 kmh 30.15 in1021.0 mb 0.00 in0.0 mm 0.00 in0.0 mm 0.00 in0.0 mm
04:47 PM 58.1°F14.5°C 22.3°F-5.4°C 25% 3.9 mph NW6.3 kmh NW 13.0 mph20.9 kmh 30.15 in1021.0 mb 0.00 in0.0 mm 0.00 in0.0 mm 0.00 in0.0 mm
04:52 PM 58.3°F14.6°C 22.5°F-5.3°C 25% 3.3 mph NW5.3 kmh NW 13.0 mph20.9 kmh 30.15 in1021.0 mb 0.00 in0.0 mm 0.00 in0.0 mm 0.00 in0.0 mm
04:57 PM 58.1°F14.5°C 20.4°F-6.4°C 23% 6.9 mph NW11.1 kmh NW 13.0 mph20.9 kmh 30.16 in1021.3 mb 0.00 in0.0 mm 0.00 in0.0 mm 0.00 in0.0 mm
05:02 PM 57.8°F14.3°C 21.1°F-6.1°C 24% 4.7 mph NW7.6 kmh NW 13.0 mph20.9 kmh 30.16 in1021.3 mb 0.00 in0.0 mm 0.00 in0.0 mm 0.00 in0.0 mm
05:07 PM 57.7°F14.3°C 22.0°F-5.6°C 25% 3.7 mph NW6.0 kmh NW 13.0 mph20.9 kmh 30.15 in1021.0 mb 0.00 in0.0 mm 0.00 in0.0 mm 0.00 in0.0 mm
05:12 PM 57.8°F14.3°C 23.0°F-5.0°C 26% 3.6 mph NW5.8 kmh NW 13.0 mph20.9 kmh 30.15 in1021.0 mb 0.00 in0.0 mm 0.00 in0.0 mm 0.00 in0.0 mm
05:17 PM 57.6°F14.2°C 21.9°F-5.6°C 25% 4.3 mph NW6.9 kmh NW 13.0 mph20.9 kmh 30.15 in1021.0 mb 0.00 in0.0 mm 0.00 in0.0 mm 0.00 in0.0 mm
05:22 PM 57.6°F14.2°C 22.8°F-5.1°C 26% 2.9 mph NW4.7 kmh NW 10.0 mph16.1 kmh 30.15 in1021.0 mb 0.00 in0.0 mm 0.00 in0.0 mm 0.00 in0.0 mm
05:27 PM 57.6°F14.2°C 22.8°F-5.1°C 26% 1.7 mph NW2.7 kmh NW 10.0 mph16.1 kmh 30.14 in1020.7 mb 0.00 in0.0 mm 0.00 in0.0 mm 0.00 in0.0 mm
05:32 PM 57.8°F14.3°C 23.8°F-4.6°C 27% 1.4 mph NW2.3 kmh NW 10.0 mph16.1 kmh 30.14 in1020.7 mb 0.00 in0.0 mm 0.00 in0.0 mm 0.00 in0.0 mm
05:37 PM 57.5°F14.2°C 22.8°F-5.1°C 26% 1.6 mph NW2.6 kmh NW 8.0 mph12.9 kmh 30.14 in1020.7 mb 0.00 in0.0 mm 0.00 in0.0 mm 0.00 in0.0 mm
05:42 PM 57.3°F14.1°C 23.6°F-4.7°C 27% 2.7 mph NW4.3 kmh NW 8.0 mph12.9 kmh 30.15 in1021.0 mb 0.00 in0.0 mm 0.00 in0.0 mm 0.00 in0.0 mm
05:47 PM 57.2°F14.0°C 24.2°F-4.3°C 28% 1.5 mph NNW2.4 kmh NNW 8.0 mph12.9 kmh 30.15 in1021.0 mb 0.00 in0.0 mm 0.00 in0.0 mm 0.00 in0.0 mm
05:52 PM 57.0°F13.9°C 24.0°F-4.4°C 28% 2.4 mph NW3.9 kmh NW 8.0 mph12.9 kmh 30.15 in1021.0 mb 0.00 in0.0 mm 0.00 in0.0 mm 0.00 in0.0 mm
05:57 PM 56.7°F13.7°C 23.7°F-4.6°C 28% 2.2 mph NNW3.5 kmh NNW 8.0 mph12.9 kmh 30.15 in1021.0 mb 0.00 in0.0 mm 0.00 in0.0 mm 0.00 in0.0 mm
06:02 PM 56.3°F13.5°C 23.6°F-4.7°C 28% 3.0 mph NW4.8 kmh NW 7.0 mph11.3 kmh 30.15 in1021.0 mb 0.00 in0.0 mm 0.00 in0.0 mm 0.00 in0.0 mm
06:07 PM 56.1°F13.4°C 24.1°F-4.4°C 29% 2.0 mph NW3.2 kmh NW 7.0 mph11.3 kmh 30.16 in1021.3 mb 0.00 in0.0 mm 0.00 in0.0 mm 0.00 in0.0 mm
06:12 PM 55.8°F13.2°C 23.8°F-4.6°C 29% 1.9 mph NW3.1 kmh NW 7.0 mph11.3 kmh 30.16 in1021.3 mb 0.00 in0.0 mm 0.00 in0.0 mm 0.00 in0.0 mm
06:17 PM 55.4°F13.0°C 24.2°F-4.3°C 30% 1.0 mph NW1.6 kmh NW 5.0 mph8.0 kmh 30.16 in1021.3 mb 0.00 in0.0 mm 0.00 in0.0 mm 0.00 in0.0 mm
06:22 PM 55.0°F12.8°C 24.9°F-3.9°C 31% 1.5 mph WNW2.4 kmh WNW 6.0 mph9.7 kmh 30.16 in1021.3 mb 0.00 in0.0 mm 0.00 in0.0 mm 0.00 in0.0 mm
06:27 PM 54.7°F12.6°C 23.6°F-4.7°C 30% 2.7 mph NW4.3 kmh NW 8.0 mph12.9 kmh 30.16 in1021.3 mb 0.00 in0.0 mm 0.00 in0.0 mm 0.00 in0.0 mm
06:32 PM 54.6°F12.6°C 23.6°F-4.7°C 30% 1.9 mph NW3.1 kmh NW 8.0 mph12.9 kmh 30.17 in1021.7 mb 0.00 in0.0 mm 0.00 in0.0 mm 0.00 in0.0 mm
06:37 PM 54.2°F12.3°C 24.0°F-4.4°C 31% 2.2 mph WNW3.5 kmh WNW 8.0 mph12.9 kmh 30.17 in1021.7 mb 0.00 in0.0 mm 0.00 in0.0 mm 0.00 in0.0 mm
06:42 PM 54.0°F12.2°C 24.0°F-4.4°C 31% 2.2 mph NW3.5 kmh NW 8.0 mph12.9 kmh 30.17 in1021.7 mb 0.00 in0.0 mm 0.00 in0.0 mm 0.00 in0.0 mm
06:48 PM 53.8°F12.1°C 23.8°F-4.6°C 31% 2.5 mph NW4.0 kmh NW 6.0 mph9.7 kmh 30.17 in1021.7 mb 0.00 in0.0 mm 0.00 in0.0 mm 0.00 in0.0 mm
06:53 PM 53.7°F12.1°C 24.3°F-4.3°C 32% 1.6 mph NW2.6 kmh NW 6.0 mph9.7 kmh 30.17 in1021.7 mb 0.00 in0.0 mm 0.00 in0.0 mm 0.00 in0.0 mm
06:58 PM 53.5°F11.9°C 24.1°F-4.4°C 32% 1.1 mph WNW1.8 kmh WNW 6.0 mph9.7 kmh 30.17 in1021.7 mb 0.00 in0.0 mm 0.00 in0.0 mm 0.00 in0.0 mm
07:03 PM 53.3°F11.8°C 24.9°F-3.9°C 33% 1.9 mph WNW3.1 kmh WNW 5.0 mph8.0 kmh 30.17 in1021.7 mb 0.00 in0.0 mm 0.00 in0.0 mm 0.00 in0.0 mm
07:08 PM 53.2°F11.8°C 24.6°F-4.1°C 33% 1.8 mph WNW2.9 kmh WNW 4.0 mph6.4 kmh 30.17 in1021.7 mb 0.00 in0.0 mm 0.00 in0.0 mm 0.00 in0.0 mm
07:13 PM 53.0°F11.7°C 24.6°F-4.1°C 33% 1.1 mph WNW1.8 kmh WNW 4.0 mph6.4 kmh 30.17 in1021.7 mb 0.00 in0.0 mm 0.00 in0.0 mm 0.00 in0.0 mm
07:18 PM 52.6°F11.4°C 24.3°F-4.3°C 33% 1.0 mph W1.6 kmh W 4.0 mph6.4 kmh 30.18 in1022.0 mb 0.00 in0.0 mm 0.00 in0.0 mm 0.00 in0.0 mm
07:23 PM 52.3°F11.3°C 24.5°F-4.2°C 34% 1.2 mph W1.9 kmh W 4.0 mph6.4 kmh 30.18 in1022.0 mb 0.00 in0.0 mm 0.00 in0.0 mm 0.00 in0.0 mm
07:28 PM 52.2°F11.2°C 24.4°F-4.2°C 34% 1.5 mph WNW2.4 kmh WNW 3.0 mph4.8 kmh 30.18 in1022.0 mb 0.00 in0.0 mm 0.00 in0.0 mm 0.00 in0.0 mm
07:33 PM 52.0°F11.1°C 24.5°F-4.2°C 34% 1.1 mph W1.8 kmh W 3.0 mph4.8 kmh 30.18 in1022.0 mb 0.00 in0.0 mm 0.00 in0.0 mm 0.00 in0.0 mm
07:38 PM 51.9°F11.1°C 24.9°F-3.9°C 35% 1.6 mph WNW2.6 kmh WNW 4.0 mph6.4 kmh 30.18 in1022.0 mb 0.00 in0.0 mm 0.00 in0.0 mm 0.00 in0.0 mm
07:43 PM 51.8°F11.0°C 25.0°F-3.9°C 35% 2.3 mph WNW3.7 kmh WNW 4.0 mph6.4 kmh 30.18 in1022.0 mb 0.00 in0.0 mm 0.00 in0.0 mm 0.00 in0.0 mm
07:48 PM 51.7°F10.9°C 24.7°F-4.1°C 35% 2.1 mph W3.4 kmh W 6.0 mph9.7 kmh 30.19 in1022.4 mb 0.00 in0.0 mm 0.00 in0.0 mm 0.00 in0.0 mm
07:53 PM 51.6°F10.9°C 25.3°F-3.7°C 36% 2.2 mph W3.5 kmh W 6.0 mph9.7 kmh 30.19 in1022.4 mb 0.00 in0.0 mm 0.00 in0.0 mm 0.00 in0.0 mm
07:58 PM 51.5°F10.8°C 25.4°F-3.7°C 36% 1.8 mph W2.9 kmh W 6.0 mph9.7 kmh 30.19 in1022.4 mb 0.00 in0.0 mm 0.00 in0.0 mm 0.00 in0.0 mm
08:03 PM 51.3°F10.7°C 25.9°F-3.4°C 37% 2.5 mph WNW4.0 kmh WNW 5.0 mph8.0 kmh 30.19 in1022.4 mb 0.00 in0.0 mm 0.00 in0.0 mm 0.00 in0.0 mm
08:08 PM 51.2°F10.7°C 24.9°F-3.9°C 36% 2.6 mph WNW4.2 kmh WNW 5.0 mph8.0 kmh 30.19 in1022.4 mb 0.00 in0.0 mm 0.00 in0.0 mm 0.00 in0.0 mm
08:13 PM 51.3°F10.7°C 25.0°F-3.9°C 36% 2.8 mph WNW4.5 kmh WNW 5.0 mph8.0 kmh 30.19 in1022.4 mb 0.00 in0.0 mm 0.00 in0.0 mm 0.00 in0.0 mm
08:18 PM 51.3°F10.7°C 25.2°F-3.8°C 36% 2.8 mph WNW4.5 kmh WNW 5.0 mph8.0 kmh 30.20 in1022.7 mb 0.00 in0.0 mm 0.00 in0.0 mm 0.00 in0.0 mm
08:23 PM 51.1°F10.6°C 24.8°F-4.0°C 36% 1.8 mph WNW2.9 kmh WNW 5.0 mph8.0 kmh 30.19 in1022.4 mb 0.00 in0.0 mm 0.00 in0.0 mm 0.00 in0.0 mm
08:28 PM 51.1°F10.6°C 24.8°F-4.0°C 36% 1.7 mph WNW2.7 kmh WNW 5.0 mph8.0 kmh 30.19 in1022.4 mb 0.00 in0.0 mm 0.00 in0.0 mm 0.00 in0.0 mm
08:33 PM 51.0°F10.6°C 24.7°F-4.1°C 36% 1.2 mph WNW1.9 kmh WNW 5.0 mph8.0 kmh 30.19 in1022.4 mb 0.00 in0.0 mm 0.00 in0.0 mm 0.00 in0.0 mm
08:38 PM 50.9°F10.5°C 24.9°F-3.9°C 36% 1.2 mph W1.9 kmh W 4.0 mph6.4 kmh 30.19 in1022.4 mb 0.00 in0.0 mm 0.00 in0.0 mm 0.00 in0.0 mm
08:43 PM 50.7°F10.4°C 25.1°F-3.8°C 37% 2.3 mph WNW3.7 kmh WNW 4.0 mph6.4 kmh 30.19 in1022.4 mb 0.00 in0.0 mm 0.00 in0.0 mm 0.00 in0.0 mm
08:48 PM 50.7°F10.4°C 25.3°F-3.7°C 37% 2.0 mph WNW3.2 kmh WNW 5.0 mph8.0 kmh 30.19 in1022.4 mb 0.00 in0.0 mm 0.00 in0.0 mm 0.00 in0.0 mm
08:53 PM 50.6°F10.3°C 25.3°F-3.7°C 37% 2.4 mph WNW3.9 kmh WNW 5.0 mph8.0 kmh 30.19 in1022.4 mb 0.00 in0.0 mm 0.00 in0.0 mm 0.00 in0.0 mm
08:58 PM 50.6°F10.3°C 25.1°F-3.8°C 37% 2.9 mph WNW4.7 kmh WNW 5.0 mph8.0 kmh 30.19 in1022.4 mb 0.00 in0.0 mm 0.00 in0.0 mm 0.00 in0.0 mm
09:03 PM 50.6°F10.3°C 25.1°F-3.8°C 37% 2.2 mph WNW3.5 kmh WNW 5.0 mph8.0 kmh 30.19 in1022.4 mb 0.00 in0.0 mm 0.00 in0.0 mm 0.00 in0.0 mm
09:08 PM 50.4°F10.2°C 24.9°F-3.9°C 37% 2.7 mph WNW4.3 kmh WNW 6.0 mph9.7 kmh 30.19 in1022.4 mb 0.00 in0.0 mm 0.00 in0.0 mm 0.00 in0.0 mm
09:13 PM 50.1°F10.1°C 24.6°F-4.1°C 37% 3.0 mph WNW4.8 kmh WNW 6.0 mph9.7 kmh 30.20 in1022.7 mb 0.00 in0.0 mm 0.00 in0.0 mm 0.00 in0.0 mm
09:18 PM 50.0°F10.0°C 25.2°F-3.8°C 38% 4.1 mph WNW6.6 kmh WNW 7.0 mph11.3 kmh 30.20 in1022.7 mb 0.00 in0.0 mm 0.00 in0.0 mm 0.00 in0.0 mm
09:23 PM 49.9°F9.9°C 25.1°F-3.8°C 38% 2.8 mph WNW4.5 kmh WNW 8.0 mph12.9 kmh 30.20 in1022.7 mb 0.00 in0.0 mm 0.00 in0.0 mm 0.00 in0.0 mm
09:27 PM 49.7°F9.8°C 24.9°F-3.9°C 38% 2.4 mph WNW3.9 kmh WNW 8.0 mph12.9 kmh 30.20 in1022.7 mb 0.00 in0.0 mm 0.00 in0.0 mm 0.00 in0.0 mm
09:32 PM 49.4°F9.7°C 25.3°F-3.7°C 39% 2.9 mph WNW4.7 kmh WNW 8.0 mph12.9 kmh 30.20 in1022.7 mb 0.00 in0.0 mm 0.00 in0.0 mm 0.00 in0.0 mm
09:37 PM 49.1°F9.5°C 25.6°F-3.6°C 40% 2.2 mph NW3.5 kmh NW 8.0 mph12.9 kmh 30.20 in1022.7 mb 0.00 in0.0 mm 0.00 in0.0 mm 0.00 in0.0 mm
09:42 PM 48.8°F9.3°C 25.5°F-3.6°C 40% 2.6 mph WNW4.2 kmh WNW 7.0 mph11.3 kmh 30.20 in1022.7 mb 0.00 in0.0 mm 0.00 in0.0 mm 0.00 in0.0 mm
09:47 PM 48.5°F9.2°C 25.7°F-3.5°C 41% 2.3 mph NW3.7 kmh NW 7.0 mph11.3 kmh 30.20 in1022.7 mb 0.00 in0.0 mm 0.00 in0.0 mm 0.00 in0.0 mm
09:52 PM 48.2°F9.0°C 25.4°F-3.7°C 41% 1.6 mph WNW2.6 kmh WNW 7.0 mph11.3 kmh 30.19 in1022.4 mb 0.00 in0.0 mm 0.00 in0.0 mm 0.00 in0.0 mm
09:57 PM 48.1°F8.9°C 25.5°F-3.6°C 41% 1.4 mph WNW2.3 kmh WNW 5.0 mph8.0 kmh 30.19 in1022.4 mb 0.00 in0.0 mm 0.00 in0.0 mm 0.00 in0.0 mm
10:02 PM 48.0°F8.9°C 26.0°F-3.3°C 42% 1.1 mph NW1.8 kmh NW 4.0 mph6.4 kmh 30.19 in1022.4 mb 0.00 in0.0 mm 0.00 in0.0 mm 0.00 in0.0 mm
10:07 PM 47.9°F8.8°C 25.1°F-3.8°C 41% 1.2 mph NW1.9 kmh NW 3.0 mph4.8 kmh 30.19 in1022.4 mb 0.00 in0.0 mm 0.00 in0.0 mm 0.00 in0.0 mm
10:12 PM 47.9°F8.8°C 25.9°F-3.4°C 42% 1.1 mph WNW1.8 kmh WNW 2.0 mph3.2 kmh 30.19 in1022.4 mb 0.00 in0.0 mm 0.00 in0.0 mm 0.00 in0.0 mm
10:17 PM 47.7°F8.7°C 25.6°F-3.6°C 42% 2.1 mph WNW3.4 kmh WNW 4.0 mph6.4 kmh 30.20 in1022.7 mb 0.00 in0.0 mm 0.00 in0.0 mm 0.00 in0.0 mm
10:22 PM 47.7°F8.7°C 25.7°F-3.5°C 42% 2.1 mph NW3.4 kmh NW 4.0 mph6.4 kmh 30.20 in1022.7 mb 0.00 in0.0 mm 0.00 in0.0 mm 0.00 in0.0 mm
10:27 PM 47.6°F8.7°C 25.6°F-3.6°C 42% 2.4 mph WNW3.9 kmh WNW 5.0 mph8.0 kmh 30.21 in1023.0 mb 0.00 in0.0 mm 0.00 in0.0 mm 0.00 in0.0 mm
10:32 PM 47.5°F8.6°C 25.4°F-3.7°C 42% 2.9 mph WNW4.7 kmh WNW 7.0 mph11.3 kmh 30.20 in1022.7 mb 0.00 in0.0 mm 0.00 in0.0 mm 0.00 in0.0 mm
10:37 PM 47.3°F8.5°C 25.2°F-3.8°C 42% 2.7 mph NW4.3 kmh NW 7.0 mph11.3 kmh 30.20 in1022.7 mb 0.00 in0.0 mm 0.00 in0.0 mm 0.00 in0.0 mm
10:42 PM 47.1°F8.4°C 25.6°F-3.6°C 43% 3.4 mph NW5.5 kmh NW 7.0 mph11.3 kmh 30.20 in1022.7 mb 0.00 in0.0 mm 0.00 in0.0 mm 0.00 in0.0 mm
10:47 PM 47.0°F8.3°C 25.5°F-3.6°C 43% 2.4 mph NW3.9 kmh NW 7.0 mph11.3 kmh 30.20 in1022.7 mb 0.00 in0.0 mm 0.00 in0.0 mm 0.00 in0.0 mm
10:52 PM 46.8°F8.2°C 25.3°F-3.7°C 43% 1.8 mph NW2.9 kmh NW 7.0 mph11.3 kmh 30.20 in1022.7 mb 0.00 in0.0 mm 0.00 in0.0 mm 0.00 in0.0 mm
10:57 PM 46.6°F8.1°C 25.7°F-3.5°C 44% 2.1 mph NW3.4 kmh NW 7.0 mph11.3 kmh 30.19 in1022.4 mb 0.00 in0.0 mm 0.00 in0.0 mm 0.00 in0.0 mm
11:02 PM 46.5°F8.1°C 25.7°F-3.5°C 44% 2.4 mph NW3.9 kmh NW 7.0 mph11.3 kmh 30.19 in1022.4 mb 0.00 in0.0 mm 0.00 in0.0 mm 0.00 in0.0 mm
11:07 PM 46.4°F8.0°C 25.6°F-3.6°C 44% 2.6 mph NW4.2 kmh NW 6.0 mph9.7 kmh 30.19 in1022.4 mb 0.00 in0.0 mm 0.00 in0.0 mm 0.00 in0.0 mm
11:12 PM 46.3°F7.9°C 25.4°F-3.7°C 44% 1.8 mph NW2.9 kmh NW 6.0 mph9.7 kmh 30.19 in1022.4 mb 0.00 in0.0 mm 0.00 in0.0 mm 0.00 in0.0 mm
11:17 PM 46.3°F7.9°C 25.4°F-3.7°C 44% 1.5 mph NW2.4 kmh NW 6.0 mph9.7 kmh 30.20 in1022.7 mb 0.00 in0.0 mm 0.00 in0.0 mm 0.00 in0.0 mm
11:22 PM 46.3°F7.9°C 25.6°F-3.6°C 44% 1.8 mph NW2.9 kmh NW 6.0 mph9.7 kmh 30.19 in1022.4 mb 0.00 in0.0 mm 0.00 in0.0 mm 0.00 in0.0 mm
11:27 PM 46.3°F7.9°C 25.4°F-3.7°C 44% 2.2 mph NW3.5 kmh NW 6.0 mph9.7 kmh 30.19 in1022.4 mb 0.00 in0.0 mm 0.00 in0.0 mm 0.00 in0.0 mm
11:32 PM 46.1°F7.8°C 25.3°F-3.7°C 44% 2.7 mph WNW4.3 kmh WNW 5.0 mph8.0 kmh 30.19 in1022.4 mb 0.00 in0.0 mm 0.00 in0.0 mm 0.00 in0.0 mm
11:37 PM 46.0°F7.8°C 25.2°F-3.8°C 44% 1.9 mph WNW3.1 kmh WNW 5.0 mph8.0 kmh 30.19 in1022.4 mb 0.00 in0.0 mm 0.00 in0.0 mm 0.00 in0.0 mm
11:42 PM 45.8°F7.7°C 25.5°F-3.6°C 45% 1.9 mph NW3.1 kmh NW 5.0 mph8.0 kmh 30.19 in1022.4 mb 0.00 in0.0 mm 0.00 in0.0 mm 0.00 in0.0 mm
11:47 PM 45.6°F7.6°C 25.5°F-3.6°C 45% 2.1 mph NW3.4 kmh NW 5.0 mph8.0 kmh 30.19 in1022.4 mb 0.00 in0.0 mm 0.00 in0.0 mm 0.00 in0.0 mm
11:52 PM 45.5°F7.5°C 25.4°F-3.7°C 45% 2.6 mph WNW4.2 kmh WNW 4.0 mph6.4 kmh 30.18 in1022.0 mb 0.00 in0.0 mm 0.00 in0.0 mm 0.00 in0.0 mm
11:57 PM 45.4°F7.4°C 25.3°F-3.7°C 45% 1.6 mph NW2.6 kmh NW 4.0 mph6.4 kmh 30.18 in1022.0 mb 0.00 in0.0 mm 0.00 in0.0 mm 0.00 in0.0 mm